sensor_id;sensor_type;location;lat;lon;timestamp;pressure;altitude;pressure_sealevel;temperature;humidity
80180;BME280;69505;52.134;5.438;2023-06-14T00:00:41;101632.69;;;16.84;54.47
80180;BME280;69505;52.134;5.438;2023-06-14T00:03:08;101633.53;;;16.84;54.96
80180;BME280;69505;52.134;5.438;2023-06-14T00:05:37;101635.38;;;16.84;53.96
80180;BME280;69505;52.134;5.438;2023-06-14T00:08:07;101633.38;;;16.86;54.92
80180;BME280;69505;52.134;5.438;2023-06-14T00:10:35;101640.44;;;16.87;55.08
80180;BME280;69505;52.134;5.438;2023-06-14T00:13:03;101642.44;;;16.85;54.72
80180;BME280;69505;52.134;5.438;2023-06-14T00:15:33;101639.16;;;16.81;54.91
80180;BME280;69505;52.134;5.438;2023-06-14T00:18:00;101641.09;;;16.79;54.39
80180;BME280;69505;52.134;5.438;2023-06-14T00:20:28;101645.25;;;16.83;54.74
80180;BME280;69505;52.134;5.438;2023-06-14T00:22:55;101637.91;;;16.86;55.41
80180;BME280;69505;52.134;5.438;2023-06-14T00:25:23;101637.91;;;16.86;53.84
80180;BME280;69505;52.134;5.438;2023-06-14T00:27:56;101648.09;;;16.82;55.07
80180;BME280;69505;52.134;5.438;2023-06-14T00:30:24;101652.97;;;16.77;55.86
80180;BME280;69505;52.134;5.438;2023-06-14T00:32:51;101650.84;;;16.71;54.83
80180;BME280;69505;52.134;5.438;2023-06-14T00:35:18;101648.69;;;16.64;55.83
80180;BME280;69505;52.134;5.438;2023-06-14T00:37:45;101649.00;;;16.61;55.92
80180;BME280;69505;52.134;5.438;2023-06-14T00:40:11;101639.53;;;16.57;54.60
80180;BME280;69505;52.134;5.438;2023-06-14T00:42:38;101640.94;;;16.61;54.28
80180;BME280;69505;52.134;5.438;2023-06-14T00:45:05;101642.91;;;16.59;54.54
80180;BME280;69505;52.134;5.438;2023-06-14T00:47:32;101644.88;;;16.57;54.45
80180;BME280;69505;52.134;5.438;2023-06-14T00:50:00;101645.72;;;16.58;54.06
80180;BME280;69505;52.134;5.438;2023-06-14T00:52:27;101646.16;;;16.53;55.64
80180;BME280;69505;52.134;5.438;2023-06-14T00:54:54;101651.78;;;16.50;56.47
80180;BME280;69505;52.134;5.438;2023-06-14T00:57:20;101644.44;;;16.42;56.28
80180;BME280;69505;52.134;5.438;2023-06-14T00:59:48;101644.84;;;16.38;56.15
80180;BME280;69505;52.134;5.438;2023-06-14T01:02:16;101643.41;;;16.34;56.62
80180;BME280;69505;52.134;5.438;2023-06-14T01:04:46;101642.13;;;16.28;56.45
80180;BME280;69505;52.134;5.438;2023-06-14T01:15:02;101642.13;;;16.28;55.84
80180;BME280;69505;52.134;5.438;2023-06-14T01:17:30;101651.00;;;16.29;56.92
80180;BME280;69505;52.134;5.438;2023-06-14T01:20:00;101641.41;;;16.26;56.04
80180;BME280;69505;52.134;5.438;2023-06-14T01:22:27;101639.13;;;16.21;56.93
80180;BME280;69505;52.134;5.438;2023-06-14T01:24:55;101643.06;;;16.17;55.65
80180;BME280;69505;52.134;5.438;2023-06-14T01:27:23;101642.88;;;16.09;56.31
80180;BME280;69505;52.134;5.438;2023-06-14T01:29:55;101648.50;;;16.06;56.13
80180;BME280;69505;52.134;5.438;2023-06-14T01:32:27;101639.59;;;15.96;57.22
80180;BME280;69505;52.134;5.438;2023-06-14T01:34:54;101643.63;;;15.90;57.63
80180;BME280;69505;52.134;5.438;2023-06-14T01:37:21;101647.81;;;15.83;57.06
80180;BME280;69505;52.134;5.438;2023-06-14T01:39:48;101645.66;;;15.77;58.43
80180;BME280;69505;52.134;5.438;2023-06-14T01:42:16;101649.94;;;15.68;58.29
80180;BME280;69505;52.134;5.438;2023-06-14T01:44:44;101648.50;;;15.64;58.04
80180;BME280;69505;52.134;5.438;2023-06-14T01:47:11;101643.69;;;15.58;58.87
80180;BME280;69505;52.134;5.438;2023-06-14T01:49:38;101649.31;;;15.55;60.00
80180;BME280;69505;52.134;5.438;2023-06-14T01:52:05;101646.63;;;15.55;58.31
80180;BME280;69505;52.134;5.438;2023-06-14T01:54:32;101645.91;;;15.53;59.38
80180;BME280;69505;52.134;5.438;2023-06-14T01:56:58;101646.56;;;15.45;59.13
80180;BME280;69505;52.134;5.438;2023-06-14T01:59:25;101644.28;;;15.40;59.62
80180;BME280;69505;52.134;5.438;2023-06-14T02:01:52;101653.81;;;15.33;59.94
80180;BME280;69505;52.134;5.438;2023-06-14T02:04:18;101649.09;;;15.26;59.53
80180;BME280;69505;52.134;5.438;2023-06-14T02:06:45;101646.94;;;15.19;60.29
80180;BME280;69505;52.134;5.438;2023-06-14T02:09:11;101643.06;;;15.12;60.52
80180;BME280;69505;52.134;5.438;2023-06-14T02:11:38;101649.50;;;15.10;59.80
80180;BME280;69505;52.134;5.438;2023-06-14T02:14:04;101655.63;;;15.00;60.54
80180;BME280;69505;52.134;5.438;2023-06-14T02:16:33;101652.75;;;14.92;61.37
80180;BME280;69505;52.134;5.438;2023-06-14T02:19:02;101660.31;;;14.87;61.13
80180;BME280;69505;52.134;5.438;2023-06-14T02:21:29;101654.34;;;14.84;61.58
80180;BME280;69505;52.134;5.438;2023-06-14T02:23:55;101651.34;;;14.77;62.14
80180;BME280;69505;52.134;5.438;2023-06-14T02:26:22;101647.94;;;14.75;62.36
80180;BME280;69505;52.134;5.438;2023-06-14T02:28:49;101656.34;;;14.70;63.17
80180;BME280;69505;52.134;5.438;2023-06-14T02:31:15;101657.78;;;14.63;62.72
80180;BME280;69505;52.134;5.438;2023-06-14T02:33:42;101659.16;;;14.57;63.08
80180;BME280;69505;52.134;5.438;2023-06-14T02:36:09;101661.19;;;14.54;62.88
80180;BME280;69505;52.134;5.438;2023-06-14T02:38:35;101661.41;;;14.51;63.17
80180;BME280;69505;52.134;5.438;2023-06-14T02:41:02;101651.09;;;14.46;63.24
80180;BME280;69505;52.134;5.438;2023-06-14T02:43:29;101656.09;;;14.39;64.24
80180;BME280;69505;52.134;5.438;2023-06-14T02:45:55;101659.25;;;14.33;63.11
80180;BME280;69505;52.134;5.438;2023-06-14T02:48:22;101662.31;;;14.29;63.79
80180;BME280;69505;52.134;5.438;2023-06-14T02:50:49;101666.81;;;14.28;63.33
80180;BME280;69505;52.134;5.438;2023-06-14T02:53:15;101664.47;;;14.24;63.67
80180;BME280;69505;52.134;5.438;2023-06-14T02:55:42;101671.16;;;14.18;64.13
80180;BME280;69505;52.134;5.438;2023-06-14T02:58:08;101669.59;;;14.15;64.61
80180;BME280;69505;52.134;5.438;2023-06-14T03:00:37;101669.19;;;14.09;64.06
80180;BME280;69505;52.134;5.438;2023-06-14T03:03:05;101671.50;;;14.02;65.17
80180;BME280;69505;52.134;5.438;2023-06-14T03:05:48;101681.09;;;14.05;63.62
80180;BME280;69505;52.134;5.438;2023-06-14T03:08:16;101684.13;;;14.00;65.01
80180;BME280;69505;52.134;5.438;2023-06-14T03:10:46;101681.84;;;13.95;65.66
80180;BME280;69505;52.134;5.438;2023-06-14T03:13:14;101677.81;;;13.90;65.65
80180;BME280;69505;52.134;5.438;2023-06-14T03:15:42;101681.69;;;13.86;66.49
80180;BME280;69505;52.134;5.438;2023-06-14T03:18:09;101684.81;;;13.79;65.47
80180;BME280;69505;52.134;5.438;2023-06-14T03:20:36;101684.22;;;13.76;65.93
80180;BME280;69505;52.134;5.438;2023-06-14T03:23:03;101695.03;;;13.74;66.19
80180;BME280;69505;52.134;5.438;2023-06-14T03:25:31;101690.78;;;13.72;67.15
80180;BME280;69505;52.134;5.438;2023-06-14T03:27:59;101691.13;;;13.67;66.76
80180;BME280;69505;52.134;5.438;2023-06-14T03:30:26;101685.06;;;13.65;65.50
80180;BME280;69505;52.134;5.438;2023-06-14T03:32:52;101689.41;;;13.66;65.41
80180;BME280;69505;52.134;5.438;2023-06-14T03:35:19;101698.41;;;13.65;66.57
80180;BME280;69505;52.134;5.438;2023-06-14T03:37:46;101697.78;;;13.62;66.02
80180;BME280;69505;52.134;5.438;2023-06-14T03:40:15;101694.84;;;13.65;67.58
80180;BME280;69505;52.134;5.438;2023-06-14T03:42:42;101696.78;;;13.63;66.35
80180;BME280;69505;52.134;5.438;2023-06-14T03:45:09;101701.28;;;13.62;66.61
80180;BME280;69505;52.134;5.438;2023-06-14T03:47:36;101697.88;;;13.60;66.69
80180;BME280;69505;52.134;5.438;2023-06-14T03:50:03;101698.72;;;13.60;66.36
80180;BME280;69505;52.134;5.438;2023-06-14T03:52:30;101706.75;;;13.60;66.11
80180;BME280;69505;52.134;5.438;2023-06-14T03:54:57;101705.16;;;13.58;67.12
80180;BME280;69505;52.134;5.438;2023-06-14T03:57:29;101711.03;;;13.63;66.55
80180;BME280;69505;52.134;5.438;2023-06-14T03:59:56;101710.38;;;13.59;66.07
80180;BME280;69505;52.134;5.438;2023-06-14T04:02:23;101719.25;;;13.60;66.28
80180;BME280;69505;52.134;5.438;2023-06-14T04:04:50;101717.56;;;13.59;66.80
80180;BME280;69505;52.134;5.438;2023-06-14T04:07:18;101718.88;;;13.65;67.33
80180;BME280;69505;52.134;5.438;2023-06-14T04:09:48;101722.44;;;13.65;66.56
80180;BME280;69505;52.134;5.438;2023-06-14T04:12:15;101725.22;;;13.64;68.22
80180;BME280;69505;52.134;5.438;2023-06-14T04:14:41;101734.78;;;13.66;67.45
80180;BME280;69505;52.134;5.438;2023-06-14T04:17:08;101734.78;;;13.66;66.87
80180;BME280;69505;52.134;5.438;2023-06-14T04:19:35;101735.44;;;13.70;67.90
80180;BME280;69505;52.134;5.438;2023-06-14T04:22:02;101738.00;;;13.71;68.11
80180;BME280;69505;52.134;5.438;2023-06-14T04:24:29;101740.41;;;13.74;67.80
80180;BME280;69505;52.134;5.438;2023-06-14T04:26:59;101744.56;;;13.78;67.18
80180;BME280;69505;52.134;5.438;2023-06-14T04:29:25;101740.69;;;13.83;66.89
80180;BME280;69505;52.134;5.438;2023-06-14T04:31:54;101733.16;;;13.88;66.97
80180;BME280;69505;52.134;5.438;2023-06-14T04:34:22;101741.06;;;13.89;66.60
80180;BME280;69505;52.134;5.438;2023-06-14T04:36:50;101734.75;;;13.90;66.74
80180;BME280;69505;52.134;5.438;2023-06-14T04:39:20;101737.28;;;13.92;67.65
80180;BME280;69505;52.134;5.438;2023-06-14T04:41:49;101737.06;;;13.95;67.43
80180;BME280;69505;52.134;5.438;2023-06-14T04:44:19;101740.97;;;14.02;66.86
80180;BME280;69505;52.134;5.438;2023-06-14T04:46:50;101744.16;;;14.07;66.74
80180;BME280;69505;52.134;5.438;2023-06-14T04:49:18;101749.97;;;14.12;67.56
80180;BME280;69505;52.134;5.438;2023-06-14T04:51:45;101752.44;;;14.15;67.19
80180;BME280;69505;52.134;5.438;2023-06-14T04:54:12;101751.97;;;14.21;65.67
80180;BME280;69505;52.134;5.438;2023-06-14T04:56:42;101751.69;;;14.25;67.92
80180;BME280;69505;52.134;5.438;2023-06-14T04:59:09;101747.72;;;14.30;67.61
80180;BME280;69505;52.134;5.438;2023-06-14T05:01:38;101747.47;;;14.33;64.84
80180;BME280;69505;52.134;5.438;2023-06-14T05:04:04;101763.63;;;14.43;66.23
80180;BME280;69505;52.134;5.438;2023-06-14T05:06:31;101767.50;;;14.50;65.79
80180;BME280;69505;52.134;5.438;2023-06-14T05:08:58;101760.94;;;14.54;64.96
80180;BME280;69505;52.134;5.438;2023-06-14T05:11:25;101763.44;;;14.57;64.63
80180;BME280;69505;52.134;5.438;2023-06-14T05:13:53;101759.28;;;14.65;64.92
80180;BME280;69505;52.134;5.438;2023-06-14T05:16:21;101756.25;;;14.69;65.50
80180;BME280;69505;52.134;5.438;2023-06-14T05:18:49;101763.66;;;14.77;64.29
80180;BME280;69505;52.134;5.438;2023-06-14T05:21:17;101761.13;;;14.87;65.81
80180;BME280;69505;52.134;5.438;2023-06-14T05:23:45;101764.38;;;14.90;65.39
80180;BME280;69505;52.134;5.438;2023-06-14T05:26:11;101768.50;;;14.94;65.46
80180;BME280;69505;52.134;5.438;2023-06-14T05:28:38;101779.44;;;15.02;65.63
80180;BME280;69505;52.134;5.438;2023-06-14T05:31:04;101771.03;;;15.07;65.73
80180;BME280;69505;52.134;5.438;2023-06-14T05:33:31;101767.75;;;15.15;64.22
80180;BME280;69505;52.134;5.438;2023-06-14T05:35:58;101763.34;;;15.25;63.71
80180;BME280;69505;52.134;5.438;2023-06-14T05:38:24;101768.91;;;15.33;62.60
80180;BME280;69505;52.134;5.438;2023-06-14T05:40:51;101776.53;;;15.49;63.04
80180;BME280;69505;52.134;5.438;2023-06-14T05:43:18;101780.41;;;15.56;62.16
80180;BME280;69505;52.134;5.438;2023-06-14T05:45:45;101772.94;;;15.60;61.68
80180;BME280;69505;52.134;5.438;2023-06-14T05:48:11;101782.91;;;15.69;60.65
80180;BME280;69505;52.134;5.438;2023-06-14T05:50:38;101783.88;;;15.79;61.17
80180;BME280;69505;52.134;5.438;2023-06-14T05:53:04;101776.03;;;15.88;61.06
80180;BME280;69505;52.134;5.438;2023-06-14T05:55:31;101782.31;;;15.98;60.48
80180;BME280;69505;52.134;5.438;2023-06-14T05:57:57;101787.88;;;16.06;59.30
80180;BME280;69505;52.134;5.438;2023-06-14T06:00:24;101784.09;;;16.09;59.71
80180;BME280;69505;52.134;5.438;2023-06-14T06:02:51;101794.41;;;16.13;62.63
80180;BME280;69505;52.134;5.438;2023-06-14T06:05:18;101794.88;;;16.18;60.46
80180;BME280;69505;52.134;5.438;2023-06-14T06:07:44;101788.72;;;16.28;59.90
80180;BME280;69505;52.134;5.438;2023-06-14T06:10:12;101789.38;;;16.41;57.44
80180;BME280;69505;52.134;5.438;2023-06-14T06:12:38;101793.38;;;16.56;57.60
80180;BME280;69505;52.134;5.438;2023-06-14T06:15:05;101798.22;;;16.62;57.11
80180;BME280;69505;52.134;5.438;2023-06-14T06:17:32;101791.53;;;16.78;56.69
80180;BME280;69505;52.134;5.438;2023-06-14T06:20:19;101795.81;;;16.90;57.01
80180;BME280;69505;52.134;5.438;2023-06-14T06:22:45;101802.59;;;16.94;56.08
80180;BME280;69505;52.134;5.438;2023-06-14T06:25:12;101804.91;;;17.09;55.86
80180;BME280;69505;52.134;5.438;2023-06-14T06:27:39;101799.00;;;17.15;55.98
80180;BME280;69505;52.134;5.438;2023-06-14T06:30:07;101800.44;;;17.19;55.59
80180;BME280;69505;52.134;5.438;2023-06-14T06:32:33;101801.00;;;17.22;56.01
80180;BME280;69505;52.134;5.438;2023-06-14T06:35:00;101802.16;;;17.30;55.63
80180;BME280;69505;52.134;5.438;2023-06-14T06:37:27;101802.19;;;17.39;54.96
80180;BME280;69505;52.134;5.438;2023-06-14T06:39:53;101809.13;;;17.52;53.97
80180;BME280;69505;52.134;5.438;2023-06-14T06:42:20;101816.06;;;17.64;54.75
80180;BME280;69505;52.134;5.438;2023-06-14T06:44:47;101812.97;;;17.69;53.27
80180;BME280;69505;52.134;5.438;2023-06-14T06:47:14;101810.72;;;17.83;53.52
80180;BME280;69505;52.134;5.438;2023-06-14T06:49:40;101811.84;;;17.91;52.68
80180;BME280;69505;52.134;5.438;2023-06-14T06:52:07;101817.22;;;18.00;52.65
80180;BME280;69505;52.134;5.438;2023-06-14T06:54:34;101812.13;;;18.07;53.16
80180;BME280;69505;52.134;5.438;2023-06-14T06:57:01;101816.06;;;18.22;52.77
80180;BME280;69505;52.134;5.438;2023-06-14T06:59:28;101823.28;;;18.32;52.45
80180;BME280;69505;52.134;5.438;2023-06-14T07:01:54;101829.31;;;18.43;52.21
80180;BME280;69505;52.134;5.438;2023-06-14T07:04:21;101816.09;;;18.60;51.76
80180;BME280;69505;52.134;5.438;2023-06-14T07:06:48;101832.94;;;18.72;51.34
80180;BME280;69505;52.134;5.438;2023-06-14T07:09:15;101827.25;;;18.84;51.09
80180;BME280;69505;52.134;5.438;2023-06-14T07:11:43;101836.72;;;18.89;50.09
80180;BME280;69505;52.134;5.438;2023-06-14T07:14:11;101835.69;;;18.99;50.67
80180;BME280;69505;52.134;5.438;2023-06-14T07:16:37;101833.66;;;19.11;50.09
80180;BME280;69505;52.134;5.438;2023-06-14T07:19:04;101839.06;;;19.29;49.72
80180;BME280;69505;52.134;5.438;2023-06-14T07:21:31;101835.50;;;19.38;49.72
80180;BME280;69505;52.134;5.438;2023-06-14T07:23:57;101843.03;;;19.53;49.47
80180;BME280;69505;52.134;5.438;2023-06-14T07:26:24;101837.41;;;20.36;47.98
80180;BME280;69505;52.134;5.438;2023-06-14T07:28:51;101835.38;;;23.05;41.65
80180;BME280;69505;52.134;5.438;2023-06-14T07:31:18;101833.88;;;25.08;36.86
80180;BME280;69505;52.134;5.438;2023-06-14T07:33:45;101833.88;;;26.24;34.06
80180;BME280;69505;52.134;5.438;2023-06-14T07:36:12;101833.53;;;26.97;32.20
80180;BME280;69505;52.134;5.438;2023-06-14T07:38:39;101831.31;;;27.96;30.94
80180;BME280;69505;52.134;5.438;2023-06-14T07:41:07;101839.94;;;28.52;30.54
80180;BME280;69505;52.134;5.438;2023-06-14T07:43:34;101845.25;;;29.06;28.54
80180;BME280;69505;52.134;5.438;2023-06-14T07:46:00;101836.94;;;29.32;27.59
80180;BME280;69505;52.134;5.438;2023-06-14T07:48:34;101834.69;;;30.18;28.78
80180;BME280;69505;52.134;5.438;2023-06-14T07:51:01;101840.66;;;30.59;26.57
80180;BME280;69505;52.134;5.438;2023-06-14T07:53:28;101850.22;;;30.31;26.76
80180;BME280;69505;52.134;5.438;2023-06-14T07:55:54;101842.09;;;30.61;26.33
80180;BME280;69505;52.134;5.438;2023-06-14T07:58:21;101853.19;;;31.59;25.77
80180;BME280;69505;52.134;5.438;2023-06-14T08:00:48;101862.31;;;31.22;25.71
80180;BME280;69505;52.134;5.438;2023-06-14T08:03:14;101855.97;;;30.85;25.79
80180;BME280;69505;52.134;5.438;2023-06-14T08:05:41;101854.16;;;30.79;24.59
80180;BME280;69505;52.134;5.438;2023-06-14T08:08:08;101860.25;;;30.62;25.30
80180;BME280;69505;52.134;5.438;2023-06-14T08:10:34;101852.25;;;31.76;25.07
80180;BME280;69505;52.134;5.438;2023-06-14T08:13:01;101849.75;;;32.41;24.90
80180;BME280;69505;52.134;5.438;2023-06-14T08:15:27;101855.50;;;32.63;24.21
80180;BME280;69505;52.134;5.438;2023-06-14T08:17:54;101854.28;;;32.23;24.80
80180;BME280;69505;52.134;5.438;2023-06-14T08:20:21;101853.25;;;31.52;23.75
80180;BME280;69505;52.134;5.438;2023-06-14T08:22:48;101854.63;;;31.61;24.63
80180;BME280;69505;52.134;5.438;2023-06-14T08:25:14;101850.31;;;32.19;23.21
80180;BME280;69505;52.134;5.438;2023-06-14T08:27:42;101852.97;;;32.14;24.21
80180;BME280;69505;52.134;5.438;2023-06-14T08:30:09;101852.97;;;32.61;22.77
80180;BME280;69505;52.134;5.438;2023-06-14T08:32:36;101858.13;;;32.22;23.04
80180;BME280;69505;52.134;5.438;2023-06-14T08:35:03;101847.59;;;32.43;22.40
80180;BME280;69505;52.134;5.438;2023-06-14T08:37:31;101852.75;;;32.51;23.25
80180;BME280;69505;52.134;5.438;2023-06-14T08:40:00;101852.25;;;32.30;21.94
80180;BME280;69505;52.134;5.438;2023-06-14T08:42:28;101855.84;;;31.77;23.98
80180;BME280;69505;52.134;5.438;2023-06-14T08:44:58;101854.66;;;32.27;24.07
80180;BME280;69505;52.134;5.438;2023-06-14T08:47:25;101854.91;;;32.49;23.38
80180;BME280;69505;52.134;5.438;2023-06-14T08:49:53;101853.78;;;32.97;23.19
80180;BME280;69505;52.134;5.438;2023-06-14T08:52:24;101852.16;;;33.25;22.00
80180;BME280;69505;52.134;5.438;2023-06-14T08:54:57;101855.50;;;32.63;21.45
80180;BME280;69505;52.134;5.438;2023-06-14T08:57:26;101857.16;;;32.16;22.72
80180;BME280;69505;52.134;5.438;2023-06-14T08:59:57;101854.47;;;31.98;22.04
80180;BME280;69505;52.134;5.438;2023-06-14T09:02:24;101852.13;;;32.25;21.70
80180;BME280;69505;52.134;5.438;2023-06-14T09:04:51;101849.41;;;32.49;21.94
80180;BME280;69505;52.134;5.438;2023-06-14T09:07:18;101848.28;;;32.14;22.83
80180;BME280;69505;52.134;5.438;2023-06-14T09:09:45;101859.13;;;31.55;23.54
80180;BME280;69505;52.134;5.438;2023-06-14T09:12:31;101850.88;;;31.98;23.53
80180;BME280;69505;52.134;5.438;2023-06-14T09:14:58;101857.88;;;31.70;22.39
80180;BME280;69505;52.134;5.438;2023-06-14T09:17:25;101859.94;;;31.26;23.51
80180;BME280;69505;52.134;5.438;2023-06-14T09:19:55;101859.06;;;31.74;24.98
80180;BME280;69505;52.134;5.438;2023-06-14T09:22:21;101855.59;;;32.09;23.82
80180;BME280;69505;52.134;5.438;2023-06-14T09:24:48;101855.72;;;32.38;21.76
80180;BME280;69505;52.134;5.438;2023-06-14T09:27:15;101846.59;;;31.60;23.99
80180;BME280;69505;52.134;5.438;2023-06-14T09:29:42;101851.50;;;31.39;22.46
80180;BME280;69505;52.134;5.438;2023-06-14T09:32:09;101868.72;;;30.79;22.15
80180;BME280;69505;52.134;5.438;2023-06-14T09:34:36;101863.91;;;30.31;24.79
80180;BME280;69505;52.134;5.438;2023-06-14T09:37:03;101871.50;;;30.54;22.99
80180;BME280;69505;52.134;5.438;2023-06-14T09:39:30;101871.19;;;30.44;22.42
80180;BME280;69505;52.134;5.438;2023-06-14T09:41:57;101863.13;;;29.92;23.05
80180;BME280;69505;52.134;5.438;2023-06-14T09:44:25;101865.19;;;30.03;24.06
80180;BME280;69505;52.134;5.438;2023-06-14T09:46:56;101847.09;;;30.46;24.68
80180;BME280;69505;52.134;5.438;2023-06-14T09:49:22;101854.16;;;30.60;23.09
80180;BME280;69505;52.134;5.438;2023-06-14T09:51:51;101865.03;;;29.91;24.61
80180;BME280;69505;52.134;5.438;2023-06-14T09:54:22;101854.16;;;30.10;25.86
80180;BME280;69505;52.134;5.438;2023-06-14T09:56:50;101862.84;;;29.68;24.80
80180;BME280;69505;52.134;5.438;2023-06-14T09:59:22;101858.81;;;29.39;24.68
80180;BME280;69505;52.134;5.438;2023-06-14T10:01:57;101855.66;;;29.42;26.88
80180;BME280;69505;52.134;5.438;2023-06-14T10:04:25;101857.81;;;29.27;24.59
80180;BME280;69505;52.134;5.438;2023-06-14T10:06:54;101849.31;;;28.90;24.83
80180;BME280;69505;52.134;5.438;2023-06-14T10:09:21;101850.13;;;28.97;26.39
80180;BME280;69505;52.134;5.438;2023-06-14T10:11:49;101843.69;;;29.30;27.07
80180;BME280;69505;52.134;5.438;2023-06-14T10:14:16;101850.47;;;29.21;25.40
80180;BME280;69505;52.134;5.438;2023-06-14T10:17:11;101857.34;;;28.78;25.31
80180;BME280;69505;52.134;5.438;2023-06-14T10:19:55;101860.31;;;28.63;26.37
80180;BME280;69505;52.134;5.438;2023-06-14T10:22:35;101849.53;;;28.82;26.40
80180;BME280;69505;52.134;5.438;2023-06-14T10:25:07;101851.56;;;29.06;26.76
80180;BME280;69505;52.134;5.438;2023-06-14T10:27:38;101841.75;;;29.37;25.28
80180;BME280;69505;52.134;5.438;2023-06-14T10:30:07;101848.13;;;29.63;26.11
80180;BME280;69505;52.134;5.438;2023-06-14T10:32:34;101839.47;;;29.34;24.50
80180;BME280;69505;52.134;5.438;2023-06-14T10:35:05;101840.97;;;29.30;25.86
80180;BME280;69505;52.134;5.438;2023-06-14T10:37:33;101841.41;;;29.59;25.46
80180;BME280;69505;52.134;5.438;2023-06-14T10:40:00;101841.50;;;29.45;26.05
80180;BME280;69505;52.134;5.438;2023-06-14T10:42:33;101837.03;;;29.12;26.18
80180;BME280;69505;52.134;5.438;2023-06-14T10:45:00;101844.66;;;28.97;26.54
80180;BME280;69505;52.134;5.438;2023-06-14T10:47:36;101844.00;;;29.15;26.46
80180;BME280;69505;52.134;5.438;2023-06-14T10:50:08;101846.28;;;29.18;25.01
80180;BME280;69505;52.134;5.438;2023-06-14T10:52:38;101850.50;;;29.07;25.71
80180;BME280;69505;52.134;5.438;2023-06-14T10:55:14;101844.88;;;28.89;27.15
80180;BME280;69505;52.134;5.438;2023-06-14T10:57:43;101844.69;;;28.84;26.46
80180;BME280;69505;52.134;5.438;2023-06-14T11:00:22;101846.44;;;28.51;26.55
80180;BME280;69505;52.134;5.438;2023-06-14T11:11:13;101832.16;;;29.21;26.49
80180;BME280;69505;52.134;5.438;2023-06-14T11:13:42;101844.06;;;29.40;27.54
80180;BME280;69505;52.134;5.438;2023-06-14T11:16:14;101834.09;;;29.07;26.60
80180;BME280;69505;52.134;5.438;2023-06-14T11:18:42;101836.59;;;29.16;25.03
80180;BME280;69505;52.134;5.438;2023-06-14T11:21:10;101833.66;;;29.10;26.02
80180;BME280;69505;52.134;5.438;2023-06-14T11:23:36;101835.78;;;29.02;25.33
80180;BME280;69505;52.134;5.438;2023-06-14T11:26:03;101836.81;;;29.07;26.25
80180;BME280;69505;52.134;5.438;2023-06-14T11:28:40;101847.66;;;28.76;24.66
80180;BME280;69505;52.134;5.438;2023-06-14T11:31:07;101837.94;;;28.86;25.34
80180;BME280;69505;52.134;5.438;2023-06-14T11:33:34;101829.75;;;28.86;25.55
80180;BME280;69505;52.134;5.438;2023-06-14T11:36:02;101823.31;;;29.26;26.65
80180;BME280;69505;52.134;5.438;2023-06-14T11:38:35;101825.78;;;29.34;27.28
80180;BME280;69505;52.134;5.438;2023-06-14T11:41:01;101817.94;;;28.92;27.07
80180;BME280;69505;52.134;5.438;2023-06-14T11:43:28;101821.09;;;28.96;27.43
80180;BME280;69505;52.134;5.438;2023-06-14T11:45:55;101811.47;;;29.32;26.14
80180;BME280;69505;52.134;5.438;2023-06-14T11:48:38;101809.34;;;29.34;25.47
80180;BME280;69505;52.134;5.438;2023-06-14T11:51:05;101824.72;;;29.35;25.72
80180;BME280;69505;52.134;5.438;2023-06-14T11:53:32;101820.06;;;29.35;25.76
80180;BME280;69505;52.134;5.438;2023-06-14T11:55:59;101826.41;;;29.68;27.04
80180;BME280;69505;52.134;5.438;2023-06-14T11:58:26;101827.91;;;29.95;25.83
80180;BME280;69505;52.134;5.438;2023-06-14T12:00:54;101822.28;;;29.90;24.30
80180;BME280;69505;52.134;5.438;2023-06-14T12:03:25;101813.09;;;29.78;24.83
80180;BME280;69505;52.134;5.438;2023-06-14T12:06:08;101815.38;;;29.81;25.97
80180;BME280;69505;52.134;5.438;2023-06-14T12:08:36;101824.84;;;29.85;25.09
80180;BME280;69505;52.134;5.438;2023-06-14T12:11:11;101818.34;;;29.80;25.59
80180;BME280;69505;52.134;5.438;2023-06-14T12:13:39;101823.72;;;29.61;25.86
80180;BME280;69505;52.134;5.438;2023-06-14T12:16:10;101821.31;;;29.78;26.10
80180;BME280;69505;52.134;5.438;2023-06-14T12:18:39;101825.63;;;29.92;25.57
80180;BME280;69505;52.134;5.438;2023-06-14T12:21:08;101813.19;;;29.90;24.52
80180;BME280;69505;52.134;5.438;2023-06-14T12:23:53;101815.09;;;29.89;27.07
80180;BME280;69505;52.134;5.438;2023-06-14T12:26:20;101824.56;;;29.62;26.18
80180;BME280;69505;52.134;5.438;2023-06-14T12:28:47;101822.47;;;29.57;26.68
80180;BME280;69505;52.134;5.438;2023-06-14T12:31:15;101817.97;;;29.76;26.46
80180;BME280;69505;52.134;5.438;2023-06-14T12:33:42;101827.75;;;29.90;26.74
80180;BME280;69505;52.134;5.438;2023-06-14T12:36:10;101826.63;;;29.66;25.75
80180;BME280;69505;52.134;5.438;2023-06-14T12:38:37;101832.94;;;29.73;25.14
80180;BME280;69505;52.134;5.438;2023-06-14T12:41:04;101822.31;;;29.84;24.92
80180;BME280;69505;52.134;5.438;2023-06-14T12:43:31;101816.75;;;29.97;26.03
80180;BME280;69505;52.134;5.438;2023-06-14T12:45:57;101820.84;;;29.81;24.53
80180;BME280;69505;52.134;5.438;2023-06-14T12:48:24;101822.97;;;29.79;25.28
80180;BME280;69505;52.134;5.438;2023-06-14T12:50:51;101813.09;;;29.78;24.94
80180;BME280;69505;52.134;5.438;2023-06-14T12:53:17;101825.56;;;29.99;25.07
80180;BME280;69505;52.134;5.438;2023-06-14T12:55:44;101820.44;;;30.09;25.46
80180;BME280;69505;52.134;5.438;2023-06-14T12:58:11;101824.69;;;30.05;23.17
80180;BME280;69505;52.134;5.438;2023-06-14T13:00:40;101818.81;;;30.02;24.18
80180;BME280;69505;52.134;5.438;2023-06-14T13:03:07;101829.00;;;29.94;23.29
80180;BME280;69505;52.134;5.438;2023-06-14T13:05:33;101826.69;;;30.17;24.43
80180;BME280;69505;52.134;5.438;2023-06-14T13:08:00;101826.75;;;30.10;23.78
80180;BME280;69505;52.134;5.438;2023-06-14T13:10:27;101837.75;;;30.28;23.95